Time;durP1;ratioP1;P1;durP2;ratioP2;P2;SDS_P1;SDS_P2;PMS_P1;PMS_P2;Temp;Humidity;BMP_temperature;BMP_pressure;BME280_temperature;BME280_humidity;BME280_pressure;Samples;Min_cycle;Max_cycle;Signal;HPM_P1;HPM_P2
2024/04/08 00:00:33;;;;;;;7.17;3.87;;;18.60;98.90;;;;;;5073958;28;20676;-59
2024/04/08 00:02:59;;;;;;;4.23;3.23;;;18.60;99.10;;;;;;5073695;28;20471;-59
2024/04/08 00:05:26;;;;;;;6.30;3.77;;;18.60;99.60;;;;;;5073667;28;20449;-59
2024/04/08 00:07:52;;;;;;;5.93;3.00;;;18.60;99.30;;;;;;5072920;28;20472;-59
2024/04/08 00:10:19;;;;;;;3.63;2.63;;;18.60;99.40;;;;;;5073787;28;20445;-59
2024/04/08 00:12:46;;;;;;;3.30;2.30;;;18.60;99.50;;;;;;5073897;28;20202;-58
2024/04/08 00:15:15;;;;;;;2.70;2.30;;;18.60;99.70;;;;;;5073803;28;20472;-59
2024/04/08 00:17:42;;;;;;;5.80;1.93;;;18.50;99.60;;;;;;5073773;28;20848;-58
2024/04/08 00:20:11;;;;;;;2.30;2.03;;;18.50;99.70;;;;;;5073913;28;20547;-58
2024/04/08 00:22:38;;;;;;;4.07;1.80;;;18.50;99.70;;;;;;5073676;28;20448;-58
2024/04/08 00:25:05;;;;;;;4.03;2.10;;;18.50;99.70;;;;;;5073637;28;20449;-58
2024/04/08 00:27:31;;;;;;;2.60;2.20;;;18.50;99.70;;;;;;5073761;28;20465;-58
2024/04/08 00:29:58;;;;;;;3.50;1.80;;;18.50;99.90;;;;;;5072931;28;21017;-58
2024/04/08 00:32:25;;;;;;;3.93;2.10;;;18.50;99.90;;;;;;5073210;28;20292;-59
2024/04/08 00:34:52;;;;;;;4.73;3.03;;;18.50;99.90;;;;;;5073505;28;20445;-58
2024/04/08 00:37:17;;;;;;;3.80;2.13;;;18.50;99.90;;;;;;5073417;28;20488;-58
2024/04/08 00:39:44;;;;;;;2.90;2.40;;;18.50;99.90;;;;;;5073369;28;20447;-59
2024/04/08 00:42:10;;;;;;;5.03;2.23;;;18.40;99.90;;;;;;5073066;28;20655;-58
2024/04/08 00:44:37;;;;;;;4.50;2.50;;;18.40;99.90;;;;;;5072845;28;20535;-58
2024/04/08 00:47:04;;;;;;;4.90;2.27;;;18.40;99.90;;;;;;5072374;28;20563;-58
2024/04/08 00:49:33;;;;;;;3.70;2.20;;;18.30;99.90;;;;;;5073758;28;20453;-57
2024/04/08 00:51:59;;;;;;;4.10;3.00;;;18.30;99.90;;;;;;5073404;28;20451;-57
2024/04/08 00:54:27;;;;;;;2.67;2.10;;;18.30;99.90;;;;;;5073011;28;20524;-58
2024/04/08 00:56:55;;;;;;;3.23;2.30;;;18.30;99.90;;;;;;5073192;28;20575;-58
2024/04/08 00:59:25;;;;;;;4.10;2.07;;;18.20;99.90;;;;;;5072684;28;20820;-57
2024/04/08 01:01:52;;;;;;;2.83;2.10;;;18.20;99.90;;;;;;5072935;28;20445;-57
2024/04/08 01:04:19;;;;;;;3.63;2.20;;;18.20;99.90;;;;;;5072693;28;20543;-58
2024/04/08 01:06:46;;;;;;;5.93;2.50;;;18.20;99.90;;;;;;5073334;28;20445;-58
2024/04/08 01:09:13;;;;;;;5.67;2.20;;;18.20;99.90;;;;;;5072877;28;20473;-58
2024/04/08 01:11:40;;;;;;;4.73;2.30;;;18.20;99.90;;;;;;5073120;28;20885;-58
2024/04/08 01:14:08;;;;;;;3.20;2.30;;;18.10;99.90;;;;;;5072724;28;21012;-58
2024/04/08 01:16:33;;;;;;;6.03;2.60;;;18.10;99.90;;;;;;5072854;28;20485;-58
2024/04/08 01:19:00;;;;;;;3.47;2.33;;;18.10;99.90;;;;;;5072988;28;20551;-59
2024/04/08 01:21:26;;;;;;;2.50;2.07;;;18.10;99.90;;;;;;5072796;28;20669;-59
2024/04/08 01:23:55;;;;;;;4.77;2.50;;;18.10;99.90;;;;;;5072760;28;20447;-59
2024/04/08 01:26:21;;;;;;;2.40;1.97;;;18.10;99.90;;;;;;5072776;28;20198;-59
2024/04/08 01:28:50;;;;;;;3.90;1.97;;;18.10;99.90;;;;;;5073207;28;20563;-59
2024/04/08 01:31:16;;;;;;;4.67;2.17;;;18.10;99.90;;;;;;5072331;28;20703;-59
2024/04/08 01:33:42;;;;;;;5.67;2.57;;;18.10;99.90;;;;;;5072982;28;20444;-58
2024/04/08 01:36:11;;;;;;;3.50;2.07;;;18.10;99.90;;;;;;5072336;28;20599;-58
2024/04/08 01:38:39;;;;;;;5.40;2.07;;;18.10;99.90;;;;;;5073155;28;20469;-59
2024/04/08 01:41:07;;;;;;;2.87;1.80;;;18.10;99.90;;;;;;5072734;28;20476;-58
2024/04/08 01:43:34;;;;;;;3.10;2.30;;;18.10;99.90;;;;;;5072943;28;20476;-59
2024/04/08 01:45:59;;;;;;;5.00;1.90;;;18.10;99.90;;;;;;5072841;28;20447;-58
2024/04/08 01:48:26;;;;;;;4.87;2.20;;;18.10;99.90;;;;;;5064538;28;20975;-58
2024/04/08 01:50:52;;;;;;;5.90;2.30;;;18.10;99.90;;;;;;5052991;28;20211;-58
2024/04/08 01:53:19;;;;;;;2.90;2.10;;;18.10;99.90;;;;;;5052866;28;20445;-58
2024/04/08 01:55:45;;;;;;;7.10;2.07;;;18.10;99.90;;;;;;5052947;28;20207;-58
2024/04/08 01:58:13;;;;;;;4.70;2.63;;;18.10;99.90;;;;;;5052838;28;20794;-58
2024/04/08 02:00:39;;;;;;;2.70;2.47;;;18.00;99.90;;;;;;5056154;28;20558;-58
2024/04/08 02:03:05;;;;;;;5.07;2.93;;;18.00;99.90;;;;;;5056177;28;20448;-58
2024/04/08 02:05:31;;;;;;;5.60;2.87;;;18.00;99.90;;;;;;5057384;28;20207;-58
2024/04/08 02:07:58;;;;;;;4.60;2.70;;;18.00;99.90;;;;;;5056860;28;20519;-58
2024/04/08 02:10:25;;;;;;;3.63;2.17;;;17.90;99.90;;;;;;5057593;28;20456;-58
2024/04/08 02:12:52;;;;;;;2.80;2.60;;;18.00;99.90;;;;;;5057924;28;20774;-58
2024/04/08 02:15:19;;;;;;;2.90;2.30;;;17.90;99.90;;;;;;5057015;28;20793;-58
2024/04/08 02:17:46;;;;;;;3.13;2.13;;;17.80;99.90;;;;;;5056821;28;20532;-58
2024/04/08 02:20:11;;;;;;;4.43;2.50;;;17.90;99.90;;;;;;5056900;28;20456;-58
2024/04/08 02:22:38;;;;;;;6.40;2.60;;;17.80;99.90;;;;;;5056797;28;20441;-58
2024/04/08 02:25:05;;;;;;;3.27;2.90;;;17.80;99.90;;;;;;5056829;28;20298;-58
2024/04/08 02:27:32;;;;;;;6.97;2.77;;;17.80;99.90;;;;;;5056693;28;20975;-58
2024/04/08 02:29:57;;;;;;;4.47;3.23;;;17.80;99.90;;;;;;5056689;28;20442;-58
2024/04/08 02:32:26;;;;;;;3.40;2.53;;;17.80;99.90;;;;;;5056141;28;20441;-58
2024/04/08 02:34:51;;;;;;;3.57;2.53;;;17.70;99.90;;;;;;5056055;28;20674;-58
2024/04/08 02:37:18;;;;;;;5.20;2.67;;;17.70;99.90;;;;;;5055785;28;20499;-58
2024/04/08 02:39:44;;;;;;;5.00;3.03;;;17.60;99.90;;;;;;5055719;28;20685;-58
2024/04/08 02:42:11;;;;;;;4.43;3.40;;;17.60;99.90;;;;;;5055989;28;20426;-58
2024/04/08 02:44:37;;;;;;;4.30;2.73;;;17.50;99.90;;;;;;5055553;28;20207;-58
2024/04/08 02:47:04;;;;;;;4.63;2.63;;;17.50;99.90;;;;;;5054958;28;20809;-59
2024/04/08 02:49:32;;;;;;;3.20;2.60;;;17.50;99.90;;;;;;5055258;28;20205;-58
2024/04/08 02:51:59;;;;;;;7.27;3.33;;;17.40;99.90;;;;;;5055180;28;20449;-59
2024/04/08 02:54:25;;;;;;;3.63;2.67;;;17.50;99.90;;;;;;5055477;28;20533;-58
2024/04/08 02:56:52;;;;;;;5.57;3.20;;;17.50;99.90;;;;;;5055378;28;20481;-58
2024/04/08 02:59:18;;;;;;;3.30;3.00;;;17.40;99.90;;;;;;5054924;28;20453;-57
2024/04/08 03:01:45;;;;;;;4.47;2.83;;;17.40;99.90;;;;;;5055164;28;20445;-60
2024/04/08 03:04:11;;;;;;;5.10;3.10;;;17.40;99.90;;;;;;5054793;28;20784;-58
2024/04/08 03:06:39;;;;;;;4.83;3.30;;;17.40;99.90;;;;;;5055014;28;20521;-57
2024/04/08 03:09:05;;;;;;;4.87;3.30;;;17.30;99.90;;;;;;5054055;28;20600;-58
2024/04/08 03:11:32;;;;;;;4.50;3.40;;;17.30;99.90;;;;;;5054782;28;20449;-58
2024/04/08 03:13:58;;;;;;;3.57;3.27;;;17.30;99.90;;;;;;5054867;28;20452;-58
2024/04/08 03:16:25;;;;;;;7.03;3.70;;;17.30;99.90;;;;;;5055109;28;20512;-58
2024/04/08 03:18:50;;;;;;;4.53;3.67;;;17.30;99.90;;;;;;5054600;28;20462;-58
2024/04/08 03:21:17;;;;;;;4.17;3.77;;;17.30;99.90;;;;;;5054483;28;20532;-58
2024/04/08 03:23:44;;;;;;;6.93;3.77;;;17.30;99.90;;;;;;5054743;28;20202;-57
2024/04/08 03:26:14;;;;;;;7.50;4.50;;;17.30;99.90;;;;;;5054058;28;20454;-58
2024/04/08 03:28:39;;;;;;;3.97;3.63;;;17.30;99.90;;;;;;5054497;28;20466;-58
2024/04/08 03:31:08;;;;;;;6.90;4.50;;;17.20;99.90;;;;;;5054070;28;20450;-58
2024/04/08 03:33:34;;;;;;;8.87;4.57;;;17.30;99.90;;;;;;5054306;28;20203;-57
2024/04/08 03:36:02;;;;;;;5.73;4.17;;;17.30;99.90;;;;;;5053710;28;21027;-58
2024/04/08 03:38:28;;;;;;;4.50;4.10;;;17.30;99.90;;;;;;5054430;28;20474;-58
2024/04/08 03:41:01;;;;;;;6.17;4.90;;;17.30;99.90;;;;;;5053669;28;20446;-58
2024/04/08 03:43:27;;;;;;;6.57;4.73;;;17.30;99.90;;;;;;5053500;28;20452;-57
2024/04/08 03:45:54;;;;;;;5.37;4.40;;;17.30;99.90;;;;;;5067610;28;20443;-58
2024/04/08 03:48:21;;;;;;;8.60;5.33;;;17.30;99.90;;;;;;5073873;28;20540;-58
2024/04/08 03:50:47;;;;;;;7.03;5.10;;;17.30;99.90;;;;;;5074108;28;20441;-58
2024/04/08 03:53:13;;;;;;;6.43;4.67;;;17.30;99.90;;;;;;5073505;28;20935;-58
2024/04/08 03:55:40;;;;;;;7.53;5.60;;;17.30;99.90;;;;;;5074103;28;20440;-58
2024/04/08 03:58:08;;;;;;;7.27;5.30;;;17.30;99.90;;;;;;5073552;28;21010;-58
2024/04/08 04:00:35;;;;;;;6.93;6.23;;;17.30;99.90;;;;;;5073647;28;20429;-58
2024/04/08 04:03:01;;;;;;;6.83;5.40;;;17.30;99.90;;;;;;5073571;28;20456;-58
2024/04/08 04:05:28;;;;;;;7.53;6.53;;;17.30;99.90;;;;;;5073659;28;20440;-58
2024/04/08 04:07:56;;;;;;;7.10;5.60;;;17.30;99.90;;;;;;5073827;28;20222;-57
2024/04/08 04:10:23;;;;;;;12.43;6.30;;;17.30;99.90;;;;;;5073620;28;20471;-57
2024/04/08 04:12:49;;;;;;;8.20;6.57;;;17.30;99.90;;;;;;5073528;28;20440;-58
2024/04/08 04:15:17;;;;;;;9.40;7.20;;;17.30;99.90;;;;;;5073521;28;20451;-58
2024/04/08 04:17:43;;;;;;;6.90;5.80;;;17.30;99.90;;;;;;5073478;28;20254;-57
2024/04/08 04:20:11;;;;;;;8.03;7.23;;;17.30;99.90;;;;;;5073099;28;20477;-58
2024/04/08 04:22:37;;;;;;;7.60;6.80;;;17.30;99.90;;;;;;5072220;28;20203;-59
2024/04/08 04:25:05;;;;;;;9.90;7.27;;;17.30;99.90;;;;;;5073182;28;20506;-58
2024/04/08 04:27:31;;;;;;;8.53;7.73;;;17.30;99.90;;;;;;5072963;28;20467;-58
2024/04/08 04:29:58;;;;;;;8.07;7.30;;;17.30;99.90;;;;;;5073397;28;20539;-57
2024/04/08 04:32:25;;;;;;;8.63;7.83;;;17.30;99.90;;;;;;5073295;28;20207;-57
2024/04/08 04:34:52;;;;;;;8.73;7.83;;;17.30;99.90;;;;;;5073293;28;20444;-57
2024/04/08 04:37:18;;;;;;;9.70;8.20;;;17.30;99.90;;;;;;5072439;28;20635;-57
2024/04/08 04:39:44;;;;;;;9.80;8.10;;;17.20;99.90;;;;;;5073142;28;20536;-60
2024/04/08 04:42:11;;;;;;;12.73;7.70;;;17.20;99.90;;;;;;5072792;28;20205;-58
2024/04/08 04:44:37;;;;;;;9.50;8.30;;;17.20;99.90;;;;;;5073305;28;20440;-57
2024/04/08 04:47:04;;;;;;;11.33;9.10;;;17.20;99.90;;;;;;5072732;28;20437;-57
2024/04/08 04:49:32;;;;;;;9.90;7.60;;;17.20;99.90;;;;;;5055452;28;20536;-57
2024/04/08 04:51:58;;;;;;;9.73;7.40;;;17.20;99.90;;;;;;5053008;28;20445;-58
2024/04/08 04:54:24;;;;;;;7.90;6.93;;;17.10;99.90;;;;;;5053069;28;20441;-58
2024/04/08 04:56:50;;;;;;;9.07;7.13;;;17.10;99.90;;;;;;5052513;28;20219;-58
2024/04/08 04:59:17;;;;;;;9.27;7.73;;;17.10;99.90;;;;;;5053058;28;20459;-57
2024/04/08 05:01:43;;;;;;;10.80;7.47;;;17.10;99.90;;;;;;5053350;28;20297;-57
2024/04/08 05:04:09;;;;;;;8.30;7.50;;;17.00;99.90;;;;;;5053274;28;20472;-57
2024/04/08 05:06:37;;;;;;;11.07;7.00;;;17.00;99.90;;;;;;5053325;28;20203;-57
2024/04/08 05:09:05;;;;;;;14.60;8.77;;;17.10;99.90;;;;;;5052940;28;20848;-57
2024/04/08 05:11:31;;;;;;;9.03;8.07;;;17.00;99.90;;;;;;5053293;28;20528;-57
2024/04/08 05:13:58;;;;;;;11.30;8.50;;;17.10;99.90;;;;;;5053732;28;20493;-57
2024/04/08 05:16:24;;;;;;;8.00;7.20;;;17.00;99.90;;;;;;5052856;28;20673;-57
2024/04/08 05:18:50;;;;;;;11.60;8.47;;;17.00;99.90;;;;;;5052858;28;20531;-57
2024/04/08 05:21:16;;;;;;;11.50;9.10;;;17.00;99.90;;;;;;5053238;28;20199;-57
2024/04/08 05:23:44;;;;;;;10.43;8.80;;;17.00;99.90;;;;;;5052899;28;20445;-57
2024/04/08 05:26:11;;;;;;;11.33;10.07;;;17.00;99.90;;;;;;5052886;28;20211;-57
2024/04/08 05:28:38;;;;;;;13.37;10.37;;;17.10;99.90;;;;;;5053037;28;20508;-57
2024/04/08 05:31:04;;;;;;;9.77;8.60;;;17.10;99.90;;;;;;5053438;28;20448;-57
2024/04/08 05:33:31;;;;;;;14.60;9.00;;;17.10;99.90;;;;;;5055519;28;20434;-57
2024/04/08 05:35:57;;;;;;;11.03;10.00;;;17.10;99.90;;;;;;5056801;28;20673;-57
2024/04/08 05:38:24;;;;;;;10.83;9.80;;;17.10;99.90;;;;;;5056969;28;20479;-57
2024/04/08 05:40:51;;;;;;;11.23;10.00;;;17.20;99.90;;;;;;5056633;28;20207;-57
2024/04/08 05:43:19;;;;;;;10.80;9.70;;;17.20;99.90;;;;;;5057277;28;20941;-57
2024/04/08 05:45:47;;;;;;;12.67;10.27;;;17.20;99.90;;;;;;5056953;28;20443;-57
2024/04/08 05:48:14;;;;;;;12.60;9.33;;;17.20;99.90;;;;;;5056707;28;20461;-57
2024/04/08 05:50:40;;;;;;;11.33;10.20;;;17.20;99.90;;;;;;5056504;28;20442;-57
2024/04/08 05:53:07;;;;;;;14.30;9.67;;;17.20;99.90;;;;;;5056545;28;20445;-57
2024/04/08 05:55:33;;;;;;;11.30;10.20;;;17.20;99.90;;;;;;5056555;28;20207;-57
2024/04/08 05:58:02;;;;;;;11.90;10.23;;;17.30;99.90;;;;;;5056160;28;20496;-57
2024/04/08 06:00:28;;;;;;;12.40;9.63;;;17.30;99.90;;;;;;5056768;28;20294;-57
2024/04/08 06:02:55;;;;;;;13.33;10.63;;;17.40;99.90;;;;;;5056419;28;20532;-57
2024/04/08 06:05:22;;;;;;;14.67;10.87;;;17.40;99.90;;;;;;5056635;28;20286;-57
2024/04/08 06:07:49;;;;;;;11.27;9.27;;;17.50;99.90;;;;;;5056072;28;21041;-57
2024/04/08 06:10:16;;;;;;;17.60;10.20;;;17.60;99.90;;;;;;5056683;28;20543;-57
2024/04/08 06:12:43;;;;;;;14.83;8.20;;;17.60;99.90;;;;;;5057196;28;20520;-58
2024/04/08 06:15:10;;;;;;;17.10;10.90;;;17.70;99.90;;;;;;5056070;28;20481;-57
2024/04/08 06:17:37;;;;;;;10.87;8.33;;;17.70;99.90;;;;;;5055890;28;20910;-57
2024/04/08 06:20:04;;;;;;;13.40;9.13;;;17.80;99.90;;;;;;5056325;28;20452;-57
2024/04/08 06:22:30;;;;;;;17.93;10.50;;;17.90;99.90;;;;;;5055955;28;20900;-57
2024/04/08 06:24:56;;;;;;;15.40;9.03;;;17.90;99.90;;;;;;5056191;28;20449;-57
2024/04/08 06:27:23;;;;;;;11.33;8.50;;;17.90;99.90;;;;;;5056107;28;20457;-57
2024/04/08 06:29:49;;;;;;;11.43;8.83;;;18.00;99.90;;;;;;5056190;28;20207;-57
2024/04/08 06:32:17;;;;;;;10.00;7.70;;;18.10;99.90;;;;;;5056072;28;20520;-57
2024/04/08 06:34:43;;;;;;;9.33;8.00;;;18.20;99.90;;;;;;5056007;28;20209;-57
2024/04/08 06:37:10;;;;;;;8.07;7.27;;;18.20;99.90;;;;;;5055842;28;20477;-57
2024/04/08 06:39:36;;;;;;;9.20;7.20;;;18.30;99.90;;;;;;5055574;28;20221;-57
2024/04/08 06:42:03;;;;;;;9.07;7.33;;;18.40;99.90;;;;;;5055618;28;20446;-57
2024/04/08 06:44:28;;;;;;;8.50;6.20;;;18.40;99.90;;;;;;5054870;28;20575;-57
2024/04/08 06:46:56;;;;;;;8.73;7.83;;;18.50;99.90;;;;;;5055954;28;20790;-57
2024/04/08 06:49:23;;;;;;;7.97;6.60;;;18.60;99.90;;;;;;5055755;28;20203;-57
2024/04/08 06:51:50;;;;;;;9.07;7.23;;;18.60;99.90;;;;;;5056241;28;20529;-57
2024/04/08 06:54:16;;;;;;;7.50;6.13;;;18.70;99.90;;;;;;5055320;28;20990;-57
2024/04/08 06:56:42;;;;;;;7.73;6.70;;;18.70;99.90;;;;;;5055558;28;20477;-57
2024/04/08 06:59:09;;;;;;;8.53;6.60;;;18.70;99.90;;;;;;5055067;28;20231;-57
2024/04/08 07:01:36;;;;;;;12.43;7.43;;;18.80;99.90;;;;;;5055478;28;20445;-57
2024/04/08 07:04:02;;;;;;;7.97;7.03;;;18.80;99.90;;;;;;5055520;28;20450;-57
2024/04/08 07:06:30;;;;;;;8.57;6.70;;;18.90;99.90;;;;;;5055138;28;20860;-57
2024/04/08 07:08:56;;;;;;;7.67;6.60;;;18.90;99.90;;;;;;5055110;28;20223;-57
2024/04/08 07:11:23;;;;;;;9.67;6.40;;;19.00;99.90;;;;;;5055365;28;20452;-57
2024/04/08 07:13:49;;;;;;;11.07;6.67;;;19.10;99.80;;;;;;5055346;28;20207;-57
2024/04/08 07:16:16;;;;;;;9.40;5.00;;;19.20;99.80;;;;;;5055306;28;21015;-57
2024/04/08 07:18:41;;;;;;;7.50;5.77;;;19.30;99.70;;;;;;5055030;28;20645;-57
2024/04/08 07:21:09;;;;;;;8.30;6.20;;;19.40;99.50;;;;;;5055223;28;20499;-57
2024/04/08 07:23:36;;;;;;;7.17;5.70;;;19.40;99.20;;;;;;5055123;28;20199;-57
2024/04/08 07:26:03;;;;;;;10.87;6.60;;;19.50;99.10;;;;;;5054954;28;20485;-57
2024/04/08 07:28:29;;;;;;;12.13;6.63;;;19.60;98.80;;;;;;5055010;28;20485;-57
2024/04/08 07:30:56;;;;;;;7.60;6.00;;;19.80;98.60;;;;;;5055119;28;21010;-57
2024/04/08 07:33:21;;;;;;;11.07;7.00;;;20.00;98.40;;;;;;5054983;28;20267;-57
2024/04/08 07:35:48;;;;;;;9.87;6.23;;;20.10;98.00;;;;;;5054833;28;20939;-57
2024/04/08 07:38:14;;;;;;;9.63;7.43;;;20.30;97.70;;;;;;5054401;28;20227;-57
2024/04/08 07:40:44;;;;;;;9.77;6.07;;;20.50;96.70;;;;;;5054799;28;20451;-57
2024/04/08 07:43:10;;;;;;;7.03;5.80;;;20.60;96.20;;;;;;5054710;28;20549;-57
2024/04/08 07:45:38;;;;;;;8.97;4.97;;;20.60;95.50;;;;;;5054819;28;20532;-57
2024/04/08 07:48:04;;;;;;;7.20;5.10;;;20.60;95.10;;;;;;5054333;28;20242;-57
2024/04/08 07:50:31;;;;;;;7.73;4.97;;;20.70;95.30;;;;;;5054515;28;20445;-57
2024/04/08 07:52:56;;;;;;;8.20;5.23;;;20.70;95.20;;;;;;5054635;28;20456;-57
2024/04/08 07:55:23;;;;;;;6.10;4.47;;;20.70;95.00;;;;;;5054217;28;20890;-57
2024/04/08 07:57:51;;;;;;;7.03;4.70;;;20.80;94.70;;;;;;5054337;28;20681;-57
2024/04/08 08:00:18;;;;;;;7.63;4.50;;;20.80;94.20;;;;;;5054001;28;20897;-57
2024/04/08 08:02:44;;;;;;;8.07;5.57;;;20.80;94.40;;;;;;5054499;28;20450;-57
2024/04/08 08:05:11;;;;;;;6.93;4.47;;;20.80;94.20;;;;;;5054322;28;20468;-57
2024/04/08 08:07:37;;;;;;;6.90;4.60;;;20.80;94.30;;;;;;5054239;28;20231;-57
2024/04/08 08:10:04;;;;;;;6.57;5.30;;;20.90;94.50;;;;;;5054271;28;20441;-57
2024/04/08 08:12:30;;;;;;;10.43;6.50;;;21.00;94.50;;;;;;5054533;28;20213;-58
2024/04/08 08:14:58;;;;;;;8.80;5.03;;;21.00;93.90;;;;;;5054112;28;20446;-58
2024/04/08 08:17:26;;;;;;;9.10;5.60;;;21.10;93.60;;;;;;5054237;28;20489;-58
2024/04/08 08:19:52;;;;;;;7.37;4.90;;;21.20;93.70;;;;;;5054158;28;20441;-58
2024/04/08 08:22:19;;;;;;;6.10;4.50;;;21.30;93.70;;;;;;5054279;28;20454;-58
2024/04/08 08:24:46;;;;;;;7.13;5.60;;;21.40;93.50;;;;;;5054155;28;20441;-58
2024/04/08 08:27:12;;;;;;;6.70;5.33;;;21.70;93.30;;;;;;5053711;28;20472;-58
2024/04/08 08:29:38;;;;;;;9.03;5.77;;;21.80;92.60;;;;;;5053890;28;20541;-57
2024/04/08 08:32:07;;;;;;;5.90;5.30;;;22.00;92.40;;;;;;5053574;28;20209;-58
2024/04/08 08:34:34;;;;;;;8.40;6.23;;;22.10;92.20;;;;;;5053989;28;20442;-58
2024/04/08 08:36:59;;;;;;;10.77;5.97;;;22.20;91.80;;;;;;5053635;28;20441;-58
2024/04/08 08:39:26;;;;;;;6.20;4.73;;;22.40;91.50;;;;;;5053471;28;20477;-58
2024/04/08 08:41:57;;;;;;;9.20;5.43;;;22.50;91.40;;;;;;5053696;28;20209;-58
2024/04/08 08:44:26;;;;;;;7.63;5.50;;;22.70;91.10;;;;;;5053729;28;20464;-58
2024/04/08 08:46:53;;;;;;;11.50;6.47;;;22.90;90.50;;;;;;5053615;28;20822;-58
2024/04/08 08:49:21;;;;;;;9.70;5.83;;;23.10;90.20;;;;;;5053959;28;20444;-58
2024/04/08 08:51:48;;;;;;;8.30;6.73;;;23.20;88.80;;;;;;5053529;28;20446;-58
2024/04/08 08:54:14;;;;;;;7.60;6.60;;;23.20;87.90;;;;;;5053347;28;20449;-58
2024/04/08 08:56:42;;;;;;;10.23;8.43;;;23.20;88.20;;;;;;5053542;28;20525;-58
2024/04/08 08:59:10;;;;;;;13.20;7.87;;;23.30;88.10;;;;;;5053164;28;20237;-58
2024/04/08 09:01:37;;;;;;;12.60;6.87;;;23.20;87.40;;;;;;5053092;28;20897;-58
2024/04/08 09:04:04;;;;;;;8.67;6.90;;;23.20;87.80;;;;;;5053548;28;20464;-58
2024/04/08 09:06:32;;;;;;;11.00;8.07;;;23.30;87.30;;;;;;5053358;28;20515;-58
2024/04/08 09:08:58;;;;;;;7.33;6.57;;;23.40;87.40;;;;;;5053038;28;20461;-58
2024/04/08 09:11:25;;;;;;;13.80;8.67;;;23.50;86.80;;;;;;5053331;28;20807;-58
2024/04/08 09:13:51;;;;;;;8.37;7.27;;;23.70;86.80;;;;;;5053353;28;20447;-58
2024/04/08 09:16:22;;;;;;;8.63;7.77;;;23.90;86.30;;;;;;5052993;28;20536;-58
2024/04/08 09:18:47;;;;;;;11.03;9.17;;;24.00;85.10;;;;;;5052798;28;20223;-58
2024/04/08 09:21:14;;;;;;;8.10;7.27;;;24.10;84.20;;;;;;5052885;28;20537;-58
2024/04/08 09:23:42;;;;;;;10.43;8.90;;;24.20;84.10;;;;;;5053061;28;20203;-58
2024/04/08 09:26:09;;;;;;;11.17;8.63;;;24.30;82.60;;;;;;5053152;28;20450;-58
2024/04/08 09:28:35;;;;;;;9.80;7.20;;;24.40;82.10;;;;;;5053065;28;20461;-58
2024/04/08 09:31:02;;;;;;;12.03;8.60;;;24.50;82.20;;;;;;5053146;28;21026;-55
2024/04/08 09:33:28;;;;;;;8.83;7.93;;;24.70;82.10;;;;;;5053346;28;20203;-58
2024/04/08 09:35:57;;;;;;;11.10;7.90;;;24.90;80.10;;;;;;5052558;28;20936;-58
2024/04/08 09:38:24;;;;;;;10.50;9.17;;;25.00;78.70;;;;;;5052906;28;20507;-55
2024/04/08 09:40:54;;;;;;;10.33;8.73;;;25.10;78.00;;;;;;5053040;28;20449;-55
2024/04/08 09:43:21;;;;;;;14.37;10.30;;;25.20;77.20;;;;;;5053085;28;20458;-55
2024/04/08 09:45:49;;;;;;;14.73;10.53;;;25.30;77.00;;;;;;5052929;28;20445;-55
2024/04/08 09:48:16;;;;;;;9.57;8.57;;;25.40;76.10;;;;;;5052854;28;20468;-56
2024/04/08 09:50:43;;;;;;;11.00;8.40;;;25.50;75.60;;;;;;5053178;28;20441;-56
2024/04/08 09:53:09;;;;;;;10.93;7.47;;;25.70;75.70;;;;;;5052904;28;20445;-56
2024/04/08 09:55:40;;;;;;;7.90;6.93;;;25.80;75.10;;;;;;5052864;28;20532;-56
2024/04/08 09:58:10;;;;;;;8.23;6.37;;;26.10;74.80;;;;;;5052592;28;20560;-56
2024/04/08 10:00:40;;;;;;;11.07;8.80;;;26.30;72.20;;;;;;5052773;28;20430;-56
2024/04/08 10:03:10;;;;;;;10.83;6.53;;;26.50;71.70;;;;;;5052850;28;20454;-56
2024/04/08 10:05:37;;;;;;;11.33;7.20;;;26.70;70.80;;;;;;5052764;28;20425;-56
2024/04/08 10:08:04;;;;;;;10.03;7.40;;;27.00;69.60;;;;;;5052736;28;20466;-56
2024/04/08 10:10:31;;;;;;;5.77;4.33;;;27.30;67.30;;;;;;5052608;28;20448;-56
2024/04/08 10:12:58;;;;;;;7.73;6.63;;;27.60;65.60;;;;;;5052756;28;20520;-56
2024/04/08 10:15:31;;;;;;;13.27;8.17;;;27.80;65.90;;;;;;5052798;28;20448;-56
2024/04/08 10:17:57;;;;;;;8.50;5.70;;;28.10;62.10;;;;;;5052636;28;20489;-56
2024/04/08 10:20:25;;;;;;;8.67;6.90;;;28.30;60.50;;;;;;5054519;28;20819;-56
2024/04/08 10:22:52;;;;;;;13.50;6.80;;;28.60;60.50;;;;;;5056080;28;20436;-56
2024/04/08 10:25:38;;;;;;;7.30;5.20;;;28.90;60.00;;;;;;5056335;28;20476;-56
2024/04/08 10:28:06;;;;;;;9.60;5.73;;;29.30;57.90;;;;;;5056035;28;20456;-56
2024/04/08 10:30:34;;;;;;;7.60;5.57;;;29.70;57.20;;;;;;5055882;28;20901;-56
2024/04/08 10:33:00;;;;;;;8.23;4.70;;;30.10;55.10;;;;;;5056153;28;20445;-56
2024/04/08 10:35:27;;;;;;;6.83;5.43;;;30.50;54.40;;;;;;5055805;28;20532;-56
2024/04/08 10:37:53;;;;;;;8.10;5.07;;;30.70;51.50;;;;;;5056021;28;20232;-56
2024/04/08 10:40:21;;;;;;;6.30;3.40;;;30.80;49.50;;;;;;5055737;28;20816;-56
2024/04/08 10:42:47;;;;;;;6.80;3.47;;;30.80;47.80;;;;;;5055712;28;20199;-56
2024/04/08 10:45:14;;;;;;;5.10;3.70;;;30.80;47.80;;;;;;5055654;28;20951;-56
2024/04/08 10:47:41;;;;;;;6.00;3.10;;;30.90;47.80;;;;;;5055768;28;20461;-56
2024/04/08 10:50:10;;;;;;;5.57;3.50;;;30.80;46.30;;;;;;5055674;28;20445;-56
2024/04/08 10:52:40;;;;;;;4.63;3.40;;;30.50;47.30;;;;;;5055572;28;20447;-56
2024/04/08 10:55:07;;;;;;;7.33;3.40;;;30.10;47.50;;;;;;5055809;28;20441;-56
2024/04/08 10:57:33;;;;;;;6.33;4.40;;;30.00;48.30;;;;;;5055560;28;20471;-57
2024/04/08 11:00:01;;;;;;;8.50;5.17;;;30.00;48.00;;;;;;5055417;28;20456;-56
2024/04/08 11:02:27;;;;;;;10.60;5.20;;;30.00;47.50;;;;;;5055936;28;20202;-56
2024/04/08 11:04:56;;;;;;;6.03;3.83;;;30.10;48.50;;;;;;5055184;28;20527;-56
2024/04/08 11:07:21;;;;;;;6.80;4.40;;;30.30;48.40;;;;;;5055510;28;20222;-56
2024/04/08 11:09:48;;;;;;;8.53;5.07;;;30.60;49.00;;;;;;5055326;28;21026;-56
2024/04/08 11:12:14;;;;;;;5.43;4.27;;;31.10;48.20;;;;;;5055513;28;20198;-56
2024/04/08 11:14:41;;;;;;;9.33;5.10;;;31.70;47.00;;;;;;5055400;28;20447;-56
2024/04/08 11:17:08;;;;;;;7.70;5.00;;;32.10;45.80;;;;;;5055013;28;20672;-56
2024/04/08 11:19:37;;;;;;;9.47;5.30;;;32.00;45.10;;;;;;5055013;28;20818;-56
2024/04/08 11:22:07;;;;;;;9.93;6.10;;;32.00;44.90;;;;;;5054875;28;20445;-56
2024/04/08 11:24:34;;;;;;;4.50;3.80;;;32.10;44.20;;;;;;5055688;28;20440;-56
2024/04/08 11:27:00;;;;;;;7.00;5.90;;;32.60;45.40;;;;;;5054940;28;20938;-57
2024/04/08 11:29:28;;;;;;;12.60;6.13;;;33.00;41.50;;;;;;5055269;28;20442;-56
2024/04/08 11:31:54;;;;;;;5.50;4.80;;;32.90;40.30;;;;;;5055093;28;20204;-56
2024/04/08 11:34:21;;;;;;;6.23;4.63;;;32.60;41.30;;;;;;5055114;28;20476;-56
2024/04/08 11:36:47;;;;;;;8.57;5.23;;;32.10;41.80;;;;;;5055112;28;20445;-57
2024/04/08 11:39:15;;;;;;;6.60;3.73;;;31.50;42.30;;;;;;5054563;28;20491;-57
2024/04/08 11:41:41;;;;;;;7.33;5.10;;;31.10;43.10;;;;;;5054921;28;20203;-56
2024/04/08 11:44:08;;;;;;;6.17;4.23;;;30.80;44.30;;;;;;5054714;28;20453;-57
2024/04/08 11:46:34;;;;;;;7.90;5.40;;;30.60;45.00;;;;;;5054701;28;20812;-56
2024/04/08 11:49:01;;;;;;;8.70;5.03;;;30.70;44.80;;;;;;5054812;28;20463;-57
2024/04/08 11:51:27;;;;;;;6.30;4.43;;;31.10;44.40;;;;;;5054787;28;20202;-57
2024/04/08 11:53:54;;;;;;;6.00;4.03;;;31.60;42.90;;;;;;5054883;28;20441;-57
2024/04/08 11:56:21;;;;;;;10.67;3.87;;;31.70;42.60;;;;;;5054620;28;20444;-56
2024/04/08 11:58:50;;;;;;;7.30;3.70;;;31.50;42.40;;;;;;5054410;28;20484;-57
2024/04/08 12:01:16;;;;;;;7.80;4.67;;;31.10;42.70;;;;;;5054526;28;20499;-57
2024/04/08 12:03:42;;;;;;;8.17;4.43;;;30.70;43.70;;;;;;5054749;28;20958;-57
2024/04/08 12:06:10;;;;;;;6.30;4.20;;;30.20;44.50;;;;;;5054923;28;20209;-57
2024/04/08 12:08:37;;;;;;;5.90;4.07;;;29.60;45.30;;;;;;5055424;28;20495;-57
2024/04/08 12:11:03;;;;;;;7.93;4.20;;;29.10;46.10;;;;;;5055112;28;20451;-56
2024/04/08 12:13:32;;;;;;;6.10;4.17;;;28.60;47.30;;;;;;5054657;28;20441;-57
2024/04/08 12:15:58;;;;;;;6.87;5.07;;;28.20;48.60;;;;;;5054439;28;20452;-56
2024/04/08 12:18:25;;;;;;;8.40;4.43;;;27.70;49.30;;;;;;5054023;28;20880;-56
2024/04/08 12:20:51;;;;;;;6.50;3.67;;;27.40;49.70;;;;;;5054260;28;20207;-57
2024/04/08 12:23:18;;;;;;;6.70;3.73;;;27.00;50.40;;;;;;5054309;28;20825;-56
2024/04/08 12:25:44;;;;;;;7.13;3.90;;;26.70;51.50;;;;;;5054847;28;20298;-56
2024/04/08 12:28:11;;;;;;;4.27;3.30;;;26.40;52.50;;;;;;5054591;28;20548;-56
2024/04/08 12:30:41;;;;;;;5.63;4.30;;;26.20;53.40;;;;;;5054369;28;20301;-56
2024/04/08 12:33:08;;;;;;;14.57;5.00;;;25.90;54.20;;;;;;5054496;28;20444;-56
2024/04/08 12:35:34;;;;;;;12.57;5.03;;;25.60;55.00;;;;;;5054452;28;20528;-57
2024/04/08 12:38:01;;;;;;;8.50;3.87;;;25.40;55.70;;;;;;5054022;28;20462;-56
2024/04/08 12:40:27;;;;;;;5.30;4.20;;;25.30;56.10;;;;;;5054280;28;20446;-56